sensor_id;sensor_type;location;lat;lon;timestamp;temperature;humidity
35635;DHT22;21757;43.610;1.440;2023-08-06T00:00:23;18.60;1.00
35635;DHT22;21757;43.610;1.440;2023-08-06T00:02:49;18.70;1.00
35635;DHT22;21757;43.610;1.440;2023-08-06T00:05:15;18.70;1.00
35635;DHT22;21757;43.610;1.440;2023-08-06T00:07:47;18.70;1.00
35635;DHT22;21757;43.610;1.440;2023-08-06T00:10:13;18.80;1.00
35635;DHT22;21757;43.610;1.440;2023-08-06T00:12:38;18.70;1.00
35635;DHT22;21757;43.610;1.440;2023-08-06T00:15:04;18.80;1.00
35635;DHT22;21757;43.610;1.440;2023-08-06T00:17:30;18.70;1.00
35635;DHT22;21757;43.610;1.440;2023-08-06T00:19:56;18.80;1.00
35635;DHT22;21757;43.610;1.440;2023-08-06T00:22:21;18.80;1.00
35635;DHT22;21757;43.610;1.440;2023-08-06T00:24:47;18.70;1.00
35635;DHT22;21757;43.610;1.440;2023-08-06T00:27:13;18.70;1.00
35635;DHT22;21757;43.610;1.440;2023-08-06T00:29:38;18.70;1.00
35635;DHT22;21757;43.610;1.440;2023-08-06T00:32:04;18.70;1.00
35635;DHT22;21757;43.610;1.440;2023-08-06T00:34:30;18.50;1.00
35635;DHT22;21757;43.610;1.440;2023-08-06T00:36:58;18.60;1.00
35635;DHT22;21757;43.610;1.440;2023-08-06T00:39:24;18.60;1.00
35635;DHT22;21757;43.610;1.440;2023-08-06T00:41:50;18.70;1.00
35635;DHT22;21757;43.610;1.440;2023-08-06T00:44:15;18.60;1.00
35635;DHT22;21757;43.610;1.440;2023-08-06T00:46:41;18.60;1.00
35635;DHT22;21757;43.610;1.440;2023-08-06T00:49:07;18.60;1.00
35635;DHT22;21757;43.610;1.440;2023-08-06T00:51:34;18.60;1.00
35635;DHT22;21757;43.610;1.440;2023-08-06T00:53:59;18.60;1.00
35635;DHT22;21757;43.610;1.440;2023-08-06T00:56:25;18.50;1.00
35635;DHT22;21757;43.610;1.440;2023-08-06T00:58:51;18.50;99.90
35635;DHT22;21757;43.610;1.440;2023-08-06T01:01:17;18.50;99.90
35635;DHT22;21757;43.610;1.440;2023-08-06T01:03:43;18.40;99.90
35635;DHT22;21757;43.610;1.440;2023-08-06T01:06:09;18.40;99.90
35635;DHT22;21757;43.610;1.440;2023-08-06T01:08:57;18.40;99.90
35635;DHT22;21757;43.610;1.440;2023-08-06T01:12:05;18.50;99.90
35635;DHT22;21757;43.610;1.440;2023-08-06T01:14:37;18.50;99.90
35635;DHT22;21757;43.610;1.440;2023-08-06T01:17:07;18.40;99.90
35635;DHT22;21757;43.610;1.440;2023-08-06T01:19:33;18.30;99.90
35635;DHT22;21757;43.610;1.440;2023-08-06T01:21:59;18.30;99.90
35635;DHT22;21757;43.610;1.440;2023-08-06T01:24:24;18.30;99.90
35635;DHT22;21757;43.610;1.440;2023-08-06T01:27:06;18.30;99.90
35635;DHT22;21757;43.610;1.440;2023-08-06T01:29:38;18.30;99.90
35635;DHT22;21757;43.610;1.440;2023-08-06T01:32:05;18.30;99.90
35635;DHT22;21757;43.610;1.440;2023-08-06T01:34:34;18.10;99.90
35635;DHT22;21757;43.610;1.440;2023-08-06T01:37:01;18.20;99.90
35635;DHT22;21757;43.610;1.440;2023-08-06T01:39:27;18.10;99.90
35635;DHT22;21757;43.610;1.440;2023-08-06T01:41:52;18.10;99.90
35635;DHT22;21757;43.610;1.440;2023-08-06T01:44:18;18.10;99.90
35635;DHT22;21757;43.610;1.440;2023-08-06T01:46:44;18.00;99.90
35635;DHT22;21757;43.610;1.440;2023-08-06T01:49:10;18.10;99.90
35635;DHT22;21757;43.610;1.440;2023-08-06T01:51:35;18.10;99.90
35635;DHT22;21757;43.610;1.440;2023-08-06T01:54:01;18.10;99.90
35635;DHT22;21757;43.610;1.440;2023-08-06T01:56:27;18.10;99.90
35635;DHT22;21757;43.610;1.440;2023-08-06T01:58:52;18.00;99.90
35635;DHT22;21757;43.610;1.440;2023-08-06T02:01:18;18.00;99.90
35635;DHT22;21757;43.610;1.440;2023-08-06T02:03:43;18.00;99.90
35635;DHT22;21757;43.610;1.440;2023-08-06T02:06:09;18.10;99.90
35635;DHT22;21757;43.610;1.440;2023-08-06T02:08:35;18.00;99.90
35635;DHT22;21757;43.610;1.440;2023-08-06T02:11:00;18.00;99.90
35635;DHT22;21757;43.610;1.440;2023-08-06T02:13:28;18.00;99.90
35635;DHT22;21757;43.610;1.440;2023-08-06T02:15:53;18.10;99.90
35635;DHT22;21757;43.610;1.440;2023-08-06T02:18:19;18.10;99.90
35635;DHT22;21757;43.610;1.440;2023-08-06T02:20:58;18.10;99.90
35635;DHT22;21757;43.610;1.440;2023-08-06T02:23:24;18.10;99.90
35635;DHT22;21757;43.610;1.440;2023-08-06T02:26:00;18.10;99.90
35635;DHT22;21757;43.610;1.440;2023-08-06T02:28:25;18.10;99.90
35635;DHT22;21757;43.610;1.440;2023-08-06T02:30:51;18.10;99.90
35635;DHT22;21757;43.610;1.440;2023-08-06T02:33:17;18.10;99.90
35635;DHT22;21757;43.610;1.440;2023-08-06T02:35:42;18.20;99.90
35635;DHT22;21757;43.610;1.440;2023-08-06T02:38:08;18.20;99.90
35635;DHT22;21757;43.610;1.440;2023-08-06T02:40:34;18.30;99.90
35635;DHT22;21757;43.610;1.440;2023-08-06T02:42:59;18.40;99.90
35635;DHT22;21757;43.610;1.440;2023-08-06T02:45:25;18.30;99.90
35635;DHT22;21757;43.610;1.440;2023-08-06T02:47:51;18.40;99.90
35635;DHT22;21757;43.610;1.440;2023-08-06T02:50:16;18.30;99.90
35635;DHT22;21757;43.610;1.440;2023-08-06T02:52:42;18.30;99.90
35635;DHT22;21757;43.610;1.440;2023-08-06T02:55:08;18.30;99.90
35635;DHT22;21757;43.610;1.440;2023-08-06T02:57:34;18.30;99.90
35635;DHT22;21757;43.610;1.440;2023-08-06T02:59:59;18.30;99.90
35635;DHT22;21757;43.610;1.440;2023-08-06T03:02:25;18.30;99.90
35635;DHT22;21757;43.610;1.440;2023-08-06T03:04:50;18.20;99.90
35635;DHT22;21757;43.610;1.440;2023-08-06T03:07:16;18.20;99.90
35635;DHT22;21757;43.610;1.440;2023-08-06T03:09:42;18.20;99.90
35635;DHT22;21757;43.610;1.440;2023-08-06T03:12:08;18.30;99.90
35635;DHT22;21757;43.610;1.440;2023-08-06T03:14:33;18.30;99.90
35635;DHT22;21757;43.610;1.440;2023-08-06T03:16:59;18.30;99.90
35635;DHT22;21757;43.610;1.440;2023-08-06T03:19:25;18.20;99.90
35635;DHT22;21757;43.610;1.440;2023-08-06T03:21:50;18.20;99.90
35635;DHT22;21757;43.610;1.440;2023-08-06T03:24:16;18.30;99.90
35635;DHT22;21757;43.610;1.440;2023-08-06T03:26:42;18.30;99.90
35635;DHT22;21757;43.610;1.440;2023-08-06T03:29:07;18.10;99.90
35635;DHT22;21757;43.610;1.440;2023-08-06T03:31:33;18.20;99.90
35635;DHT22;21757;43.610;1.440;2023-08-06T03:33:59;18.20;99.90
35635;DHT22;21757;43.610;1.440;2023-08-06T03:36:24;18.20;99.90
35635;DHT22;21757;43.610;1.440;2023-08-06T03:38:50;18.10;99.90
35635;DHT22;21757;43.610;1.440;2023-08-06T03:41:15;18.20;99.90
35635;DHT22;21757;43.610;1.440;2023-08-06T03:43:41;18.20;99.90
35635;DHT22;21757;43.610;1.440;2023-08-06T03:46:07;18.20;99.90
35635;DHT22;21757;43.610;1.440;2023-08-06T03:48:32;18.20;99.90
35635;DHT22;21757;43.610;1.440;2023-08-06T03:50:58;18.20;99.90
35635;DHT22;21757;43.610;1.440;2023-08-06T03:53:26;18.20;99.90
35635;DHT22;21757;43.610;1.440;2023-08-06T03:55:51;18.20;99.90
35635;DHT22;21757;43.610;1.440;2023-08-06T03:58:17;18.20;99.90
35635;DHT22;21757;43.610;1.440;2023-08-06T04:00:43;18.30;99.90
35635;DHT22;21757;43.610;1.440;2023-08-06T04:03:08;18.20;99.90
35635;DHT22;21757;43.610;1.440;2023-08-06T04:05:34;18.20;99.90
35635;DHT22;21757;43.610;1.440;2023-08-06T04:08:00;18.20;99.90
35635;DHT22;21757;43.610;1.440;2023-08-06T04:10:25;18.10;99.90
35635;DHT22;21757;43.610;1.440;2023-08-06T04:12:51;18.00;99.90
35635;DHT22;21757;43.610;1.440;2023-08-06T04:15:17;18.00;99.90
35635;DHT22;21757;43.610;1.440;2023-08-06T04:17:42;18.00;99.90
35635;DHT22;21757;43.610;1.440;2023-08-06T04:20:08;18.00;99.90
35635;DHT22;21757;43.610;1.440;2023-08-06T04:22:34;17.90;99.90
35635;DHT22;21757;43.610;1.440;2023-08-06T04:25:00;17.90;99.90
35635;DHT22;21757;43.610;1.440;2023-08-06T04:27:25;17.80;99.90
35635;DHT22;21757;43.610;1.440;2023-08-06T04:29:51;17.80;99.90
35635;DHT22;21757;43.610;1.440;2023-08-06T04:32:17;17.80;99.90
35635;DHT22;21757;43.610;1.440;2023-08-06T04:34:44;17.80;99.90
35635;DHT22;21757;43.610;1.440;2023-08-06T04:37:10;17.70;99.90
35635;DHT22;21757;43.610;1.440;2023-08-06T04:39:36;17.80;99.90
35635;DHT22;21757;43.610;1.440;2023-08-06T04:42:02;17.70;99.90
35635;DHT22;21757;43.610;1.440;2023-08-06T04:44:28;17.70;99.90
35635;DHT22;21757;43.610;1.440;2023-08-06T04:46:53;17.70;99.90
35635;DHT22;21757;43.610;1.440;2023-08-06T04:49:20;17.70;99.90
35635;DHT22;21757;43.610;1.440;2023-08-06T04:51:46;17.70;99.90
35635;DHT22;21757;43.610;1.440;2023-08-06T04:54:12;17.70;99.90
35635;DHT22;21757;43.610;1.440;2023-08-06T04:56:37;17.70;99.90
35635;DHT22;21757;43.610;1.440;2023-08-06T04:59:03;17.60;99.90
35635;DHT22;21757;43.610;1.440;2023-08-06T05:01:29;17.60;99.90
35635;DHT22;21757;43.610;1.440;2023-08-06T05:03:55;17.60;99.90
35635;DHT22;21757;43.610;1.440;2023-08-06T05:06:20;17.60;99.90
35635;DHT22;21757;43.610;1.440;2023-08-06T05:08:46;17.50;99.90
35635;DHT22;21757;43.610;1.440;2023-08-06T05:11:12;17.50;99.90
35635;DHT22;21757;43.610;1.440;2023-08-06T05:13:37;17.50;99.90
35635;DHT22;21757;43.610;1.440;2023-08-06T05:16:03;17.60;99.90
35635;DHT22;21757;43.610;1.440;2023-08-06T05:18:29;17.60;99.90
35635;DHT22;21757;43.610;1.440;2023-08-06T05:20:56;17.70;99.90
35635;DHT22;21757;43.610;1.440;2023-08-06T05:23:22;17.70;99.90
35635;DHT22;21757;43.610;1.440;2023-08-06T05:25:48;17.60;99.90
35635;DHT22;21757;43.610;1.440;2023-08-06T05:28:13;17.70;99.90
35635;DHT22;21757;43.610;1.440;2023-08-06T05:30:40;17.60;99.90
35635;DHT22;21757;43.610;1.440;2023-08-06T05:33:05;17.70;99.90
35635;DHT22;21757;43.610;1.440;2023-08-06T05:35:31;17.80;99.90
35635;DHT22;21757;43.610;1.440;2023-08-06T05:37:57;17.80;99.90
35635;DHT22;21757;43.610;1.440;2023-08-06T05:40:23;17.80;99.90
35635;DHT22;21757;43.610;1.440;2023-08-06T05:42:51;17.70;99.90
35635;DHT22;21757;43.610;1.440;2023-08-06T05:45:17;17.90;99.90
35635;DHT22;21757;43.610;1.440;2023-08-06T05:47:42;17.90;99.90
35635;DHT22;21757;43.610;1.440;2023-08-06T05:50:08;17.90;99.90
35635;DHT22;21757;43.610;1.440;2023-08-06T05:52:34;17.90;99.90
35635;DHT22;21757;43.610;1.440;2023-08-06T05:55:00;18.00;99.90
35635;DHT22;21757;43.610;1.440;2023-08-06T05:57:25;18.00;99.90
35635;DHT22;21757;43.610;1.440;2023-08-06T05:59:51;18.10;99.90
35635;DHT22;21757;43.610;1.440;2023-08-06T06:02:17;18.20;99.90
35635;DHT22;21757;43.610;1.440;2023-08-06T06:04:44;18.10;99.90
35635;DHT22;21757;43.610;1.440;2023-08-06T06:07:09;18.10;99.90
35635;DHT22;21757;43.610;1.440;2023-08-06T06:09:35;18.10;99.90
35635;DHT22;21757;43.610;1.440;2023-08-06T06:12:01;18.30;99.90
35635;DHT22;21757;43.610;1.440;2023-08-06T06:14:26;18.20;99.90
35635;DHT22;21757;43.610;1.440;2023-08-06T06:16:52;18.20;99.90
35635;DHT22;21757;43.610;1.440;2023-08-06T06:19:18;18.30;99.90
35635;DHT22;21757;43.610;1.440;2023-08-06T06:21:44;18.30;99.90
35635;DHT22;21757;43.610;1.440;2023-08-06T06:24:09;18.30;99.90
35635;DHT22;21757;43.610;1.440;2023-08-06T06:26:35;18.20;99.90
35635;DHT22;21757;43.610;1.440;2023-08-06T06:29:01;18.10;99.90
35635;DHT22;21757;43.610;1.440;2023-08-06T06:31:26;18.00;99.90
35635;DHT22;21757;43.610;1.440;2023-08-06T06:33:52;18.00;99.90
35635;DHT22;21757;43.610;1.440;2023-08-06T06:36:19;18.10;99.90
35635;DHT22;21757;43.610;1.440;2023-08-06T06:38:45;18.20;99.90
35635;DHT22;21757;43.610;1.440;2023-08-06T06:41:11;18.30;99.90
35635;DHT22;21757;43.610;1.440;2023-08-06T06:43:37;18.30;99.90
35635;DHT22;21757;43.610;1.440;2023-08-06T06:46:04;18.40;99.90
35635;DHT22;21757;43.610;1.440;2023-08-06T06:48:32;18.40;99.90
35635;DHT22;21757;43.610;1.440;2023-08-06T06:50:58;18.40;99.90
35635;DHT22;21757;43.610;1.440;2023-08-06T06:53:24;18.50;99.90
35635;DHT22;21757;43.610;1.440;2023-08-06T06:56:06;18.50;99.90
35635;DHT22;21757;43.610;1.440;2023-08-06T06:58:32;18.30;99.90
35635;DHT22;21757;43.610;1.440;2023-08-06T07:00:58;18.30;99.90
35635;DHT22;21757;43.610;1.440;2023-08-06T07:03:24;18.20;99.90
35635;DHT22;21757;43.610;1.440;2023-08-06T07:05:50;18.60;99.90
35635;DHT22;21757;43.610;1.440;2023-08-06T07:08:15;18.70;99.90
35635;DHT22;21757;43.610;1.440;2023-08-06T07:10:41;18.70;99.90
35635;DHT22;21757;43.610;1.440;2023-08-06T07:13:08;18.90;99.90
35635;DHT22;21757;43.610;1.440;2023-08-06T07:15:34;18.60;99.90
35635;DHT22;21757;43.610;1.440;2023-08-06T07:17:59;18.80;99.90
35635;DHT22;21757;43.610;1.440;2023-08-06T07:20:25;19.10;99.90
35635;DHT22;21757;43.610;1.440;2023-08-06T07:22:51;19.10;99.90
35635;DHT22;21757;43.610;1.440;2023-08-06T07:25:17;19.30;99.90
35635;DHT22;21757;43.610;1.440;2023-08-06T07:27:42;19.20;99.90
35635;DHT22;21757;43.610;1.440;2023-08-06T07:30:08;19.30;99.90
35635;DHT22;21757;43.610;1.440;2023-08-06T07:32:34;19.30;99.90
35635;DHT22;21757;43.610;1.440;2023-08-06T07:35:00;19.00;99.90
35635;DHT22;21757;43.610;1.440;2023-08-06T07:37:26;19.10;99.90
35635;DHT22;21757;43.610;1.440;2023-08-06T07:39:56;19.10;99.90
35635;DHT22;21757;43.610;1.440;2023-08-06T07:42:22;19.20;99.90
35635;DHT22;21757;43.610;1.440;2023-08-06T07:44:56;18.90;99.90
35635;DHT22;21757;43.610;1.440;2023-08-06T07:47:22;19.00;99.90
35635;DHT22;21757;43.610;1.440;2023-08-06T07:49:48;19.20;99.90
35635;DHT22;21757;43.610;1.440;2023-08-06T07:52:13;19.40;99.90
35635;DHT22;21757;43.610;1.440;2023-08-06T07:54:39;19.50;99.90
35635;DHT22;21757;43.610;1.440;2023-08-06T07:57:05;19.30;99.90
35635;DHT22;21757;43.610;1.440;2023-08-06T07:59:31;19.30;99.90
35635;DHT22;21757;43.610;1.440;2023-08-06T08:01:57;19.20;99.90
35635;DHT22;21757;43.610;1.440;2023-08-06T08:04:24;19.60;99.90
35635;DHT22;21757;43.610;1.440;2023-08-06T08:06:50;19.20;99.90
35635;DHT22;21757;43.610;1.440;2023-08-06T08:09:15;19.40;99.90
35635;DHT22;21757;43.610;1.440;2023-08-06T08:11:42;19.70;99.90
35635;DHT22;21757;43.610;1.440;2023-08-06T08:14:08;19.90;99.90
35635;DHT22;21757;43.610;1.440;2023-08-06T08:16:34;19.70;99.90
35635;DHT22;21757;43.610;1.440;2023-08-06T08:18:59;19.30;99.90
35635;DHT22;21757;43.610;1.440;2023-08-06T08:21:25;19.60;99.90
35635;DHT22;21757;43.610;1.440;2023-08-06T08:23:51;19.20;99.90
35635;DHT22;21757;43.610;1.440;2023-08-06T08:26:17;19.30;99.90
35635;DHT22;21757;43.610;1.440;2023-08-06T08:28:42;19.60;99.90
35635;DHT22;21757;43.610;1.440;2023-08-06T08:31:09;19.60;99.90
35635;DHT22;21757;43.610;1.440;2023-08-06T08:33:35;20.00;99.90
35635;DHT22;21757;43.610;1.440;2023-08-06T08:36:00;20.10;99.90
35635;DHT22;21757;43.610;1.440;2023-08-06T08:38:26;20.60;99.90
35635;DHT22;21757;43.610;1.440;2023-08-06T08:40:53;20.40;99.90
35635;DHT22;21757;43.610;1.440;2023-08-06T08:43:22;20.00;99.90
35635;DHT22;21757;43.610;1.440;2023-08-06T08:45:52;19.80;99.90
35635;DHT22;21757;43.610;1.440;2023-08-06T08:48:21;19.80;99.90
35635;DHT22;21757;43.610;1.440;2023-08-06T08:50:49;20.20;99.90
35635;DHT22;21757;43.610;1.440;2023-08-06T08:53:16;19.90;99.90
35635;DHT22;21757;43.610;1.440;2023-08-06T08:55:48;19.90;99.90
35635;DHT22;21757;43.610;1.440;2023-08-06T08:58:15;20.20;99.90
35635;DHT22;21757;43.610;1.440;2023-08-06T09:00:46;20.20;99.90
35635;DHT22;21757;43.610;1.440;2023-08-06T09:03:12;19.80;99.90
35635;DHT22;21757;43.610;1.440;2023-08-06T09:05:43;19.80;99.90
35635;DHT22;21757;43.610;1.440;2023-08-06T09:08:11;20.20;99.90
35635;DHT22;21757;43.610;1.440;2023-08-06T09:10:41;20.10;99.90
35635;DHT22;21757;43.610;1.440;2023-08-06T09:13:08;20.20;99.90
35635;DHT22;21757;43.610;1.440;2023-08-06T09:15:34;20.30;99.90
35635;DHT22;21757;43.610;1.440;2023-08-06T09:18:00;20.20;99.90
35635;DHT22;21757;43.610;1.440;2023-08-06T09:20:25;20.30;99.90
35635;DHT22;21757;43.610;1.440;2023-08-06T09:22:54;20.10;99.90
35635;DHT22;21757;43.610;1.440;2023-08-06T09:25:25;20.10;99.90
35635;DHT22;21757;43.610;1.440;2023-08-06T09:27:51;20.00;99.90
35635;DHT22;21757;43.610;1.440;2023-08-06T09:30:30;20.10;99.90
35635;DHT22;21757;43.610;1.440;2023-08-06T09:33:00;20.70;99.90
35635;DHT22;21757;43.610;1.440;2023-08-06T09:35:29;20.80;99.90
35635;DHT22;21757;43.610;1.440;2023-08-06T09:37:56;20.90;99.90
35635;DHT22;21757;43.610;1.440;2023-08-06T09:40:26;21.10;99.90
35635;DHT22;21757;43.610;1.440;2023-08-06T09:42:53;21.40;99.90
35635;DHT22;21757;43.610;1.440;2023-08-06T09:45:19;21.00;99.90
35635;DHT22;21757;43.610;1.440;2023-08-06T09:47:46;20.70;99.90
35635;DHT22;21757;43.610;1.440;2023-08-06T09:50:18;20.90;99.90
35635;DHT22;21757;43.610;1.440;2023-08-06T09:52:45;21.00;99.90
35635;DHT22;21757;43.610;1.440;2023-08-06T09:55:12;20.90;99.90
35635;DHT22;21757;43.610;1.440;2023-08-06T09:57:39;21.00;99.90
35635;DHT22;21757;43.610;1.440;2023-08-06T10:00:06;20.80;99.90
35635;DHT22;21757;43.610;1.440;2023-08-06T10:02:35;20.90;99.90
35635;DHT22;21757;43.610;1.440;2023-08-06T10:05:01;20.80;99.90
35635;DHT22;21757;43.610;1.440;2023-08-06T10:07:29;21.30;99.90
35635;DHT22;21757;43.610;1.440;2023-08-06T10:09:55;21.40;99.90
35635;DHT22;21757;43.610;1.440;2023-08-06T10:12:23;21.60;99.90
35635;DHT22;21757;43.610;1.440;2023-08-06T10:14:52;21.80;99.90
35635;DHT22;21757;43.610;1.440;2023-08-06T10:17:19;21.30;99.90
35635;DHT22;21757;43.610;1.440;2023-08-06T10:19:46;21.10;99.90
35635;DHT22;21757;43.610;1.440;2023-08-06T10:22:14;21.50;99.90
35635;DHT22;21757;43.610;1.440;2023-08-06T10:24:53;22.00;99.90
35635;DHT22;21757;43.610;1.440;2023-08-06T10:27:29;22.60;99.90
35635;DHT22;21757;43.610;1.440;2023-08-06T10:29:56;22.70;99.90
35635;DHT22;21757;43.610;1.440;2023-08-06T10:32:22;22.20;99.90
35635;DHT22;21757;43.610;1.440;2023-08-06T10:38:21;21.60;99.90
35635;DHT22;21757;43.610;1.440;2023-08-06T10:41:02;21.90;99.90
35635;DHT22;21757;43.610;1.440;2023-08-06T10:43:32;21.70;99.90
35635;DHT22;21757;43.610;1.440;2023-08-06T10:46:02;21.70;99.90
35635;DHT22;21757;43.610;1.440;2023-08-06T10:48:41;22.20;99.90
35635;DHT22;21757;43.610;1.440;2023-08-06T10:51:11;22.10;99.90
35635;DHT22;21757;43.610;1.440;2023-08-06T10:53:38;22.30;99.90
35635;DHT22;21757;43.610;1.440;2023-08-06T10:56:17;22.40;99.90
35635;DHT22;21757;43.610;1.440;2023-08-06T10:58:44;22.30;99.90
35635;DHT22;21757;43.610;1.440;2023-08-06T11:01:11;22.20;99.90
35635;DHT22;21757;43.610;1.440;2023-08-06T11:03:37;22.20;99.90
35635;DHT22;21757;43.610;1.440;2023-08-06T11:06:03;22.70;99.90
35635;DHT22;21757;43.610;1.440;2023-08-06T11:08:34;22.10;99.90
35635;DHT22;21757;43.610;1.440;2023-08-06T11:11:16;22.50;99.90
35635;DHT22;21757;43.610;1.440;2023-08-06T11:13:43;22.40;99.90
35635;DHT22;21757;43.610;1.440;2023-08-06T11:16:23;22.60;99.90
35635;DHT22;21757;43.610;1.440;2023-08-06T11:18:52;22.80;99.90
35635;DHT22;21757;43.610;1.440;2023-08-06T11:21:23;22.10;99.90
35635;DHT22;21757;43.610;1.440;2023-08-06T11:23:51;22.10;99.90
35635;DHT22;21757;43.610;1.440;2023-08-06T11:26:20;21.70;99.90
35635;DHT22;21757;43.610;1.440;2023-08-06T11:28:46;21.70;99.90
35635;DHT22;21757;43.610;1.440;2023-08-06T11:31:24;21.80;99.90
35635;DHT22;21757;43.610;1.440;2023-08-06T11:33:51;22.10;99.90
35635;DHT22;21757;43.610;1.440;2023-08-06T11:36:17;22.40;99.90
35635;DHT22;21757;43.610;1.440;2023-08-06T11:38:53;22.70;99.90
35635;DHT22;21757;43.610;1.440;2023-08-06T11:41:19;22.80;99.90
35635;DHT22;21757;43.610;1.440;2023-08-06T11:43:46;22.20;99.90
35635;DHT22;21757;43.610;1.440;2023-08-06T11:46:11;22.10;99.90
35635;DHT22;21757;43.610;1.440;2023-08-06T11:48:57;22.30;99.90
35635;DHT22;21757;43.610;1.440;2023-08-06T11:51:24;22.70;99.90
35635;DHT22;21757;43.610;1.440;2023-08-06T11:53:56;23.20;99.90
35635;DHT22;21757;43.610;1.440;2023-08-06T11:56:22;22.50;99.90
35635;DHT22;21757;43.610;1.440;2023-08-06T11:58:47;22.00;99.90
35635;DHT22;21757;43.610;1.440;2023-08-06T12:01:14;22.20;99.90
35635;DHT22;21757;43.610;1.440;2023-08-06T12:03:40;22.50;99.90
35635;DHT22;21757;43.610;1.440;2023-08-06T12:06:06;22.50;99.90
35635;DHT22;21757;43.610;1.440;2023-08-06T12:08:35;22.60;99.90
35635;DHT22;21757;43.610;1.440;2023-08-06T12:11:01;22.40;99.90
35635;DHT22;21757;43.610;1.440;2023-08-06T12:13:27;22.00;99.90
35635;DHT22;21757;43.610;1.440;2023-08-06T12:15:54;21.60;99.90
35635;DHT22;21757;43.610;1.440;2023-08-06T12:18:20;21.70;99.90
35635;DHT22;21757;43.610;1.440;2023-08-06T12:20:45;21.90;99.90
35635;DHT22;21757;43.610;1.440;2023-08-06T12:23:11;22.40;99.90
35635;DHT22;21757;43.610;1.440;2023-08-06T12:25:41;22.70;99.90
35635;DHT22;21757;43.610;1.440;2023-08-06T12:28:07;23.20;99.90
35635;DHT22;21757;43.610;1.440;2023-08-06T12:30:34;23.40;99.90
35635;DHT22;21757;43.610;1.440;2023-08-06T12:33:00;23.60;99.90
35635;DHT22;21757;43.610;1.440;2023-08-06T12:35:25;23.20;99.90
35635;DHT22;21757;43.610;1.440;2023-08-06T12:37:51;23.00;99.90
35635;DHT22;21757;43.610;1.440;2023-08-06T12:40:20;23.30;99.90
35635;DHT22;21757;43.610;1.440;2023-08-06T12:42:46;23.20;99.90
35635;DHT22;21757;43.610;1.440;2023-08-06T12:45:12;22.90;99.90
35635;DHT22;21757;43.610;1.440;2023-08-06T12:47:37;23.00;99.90
35635;DHT22;21757;43.610;1.440;2023-08-06T12:50:03;22.80;99.90
35635;DHT22;21757;43.610;1.440;2023-08-06T12:52:29;22.80;99.90
35635;DHT22;21757;43.610;1.440;2023-08-06T12:54:55;23.30;99.90
35635;DHT22;21757;43.610;1.440;2023-08-06T12:57:20;23.80;99.90
35635;DHT22;21757;43.610;1.440;2023-08-06T12:59:46;23.90;99.90
35635;DHT22;21757;43.610;1.440;2023-08-06T13:02:12;23.70;99.90
35635;DHT22;21757;43.610;1.440;2023-08-06T13:04:37;23.50;99.90
35635;DHT22;21757;43.610;1.440;2023-08-06T13:07:03;23.40;99.90
35635;DHT22;21757;43.610;1.440;2023-08-06T13:09:29;23.00;99.90
35635;DHT22;21757;43.610;1.440;2023-08-06T13:11:56;23.40;99.90
35635;DHT22;21757;43.610;1.440;2023-08-06T13:14:21;23.00;99.90
35635;DHT22;21757;43.610;1.440;2023-08-06T13:16:47;22.80;99.90
35635;DHT22;21757;43.610;1.440;2023-08-06T13:19:13;22.80;99.90
35635;DHT22;21757;43.610;1.440;2023-08-06T13:24:08;23.10;99.90
35635;DHT22;21757;43.610;1.440;2023-08-06T13:26:34;23.30;99.90
35635;DHT22;21757;43.610;1.440;2023-08-06T13:29:00;23.10;99.90
35635;DHT22;21757;43.610;1.440;2023-08-06T13:31:27;23.20;99.90
35635;DHT22;21757;43.610;1.440;2023-08-06T13:33:54;23.30;99.90
35635;DHT22;21757;43.610;1.440;2023-08-06T13:36:21;23.40;99.90
35635;DHT22;21757;43.610;1.440;2023-08-06T13:38:48;23.20;99.90
35635;DHT22;21757;43.610;1.440;2023-08-06T13:41:13;23.00;99.90
35635;DHT22;21757;43.610;1.440;2023-08-06T13:43:39;22.90;99.90
35635;DHT22;21757;43.610;1.440;2023-08-06T13:46:05;22.90;99.90
35635;DHT22;21757;43.610;1.440;2023-08-06T13:48:30;22.80;99.90
35635;DHT22;21757;43.610;1.440;2023-08-06T13:50:56;22.90;99.90
35635;DHT22;21757;43.610;1.440;2023-08-06T13:53:22;23.00;99.90
35635;DHT22;21757;43.610;1.440;2023-08-06T13:55:48;23.70;99.90
35635;DHT22;21757;43.610;1.440;2023-08-06T13:58:13;23.90;99.90
35635;DHT22;21757;43.610;1.440;2023-08-06T14:00:39;23.40;99.90
35635;DHT22;21757;43.610;1.440;2023-08-06T14:03:05;23.30;99.90
35635;DHT22;21757;43.610;1.440;2023-08-06T14:05:30;23.80;99.90
35635;DHT22;21757;43.610;1.440;2023-08-06T14:07:56;24.20;99.90
35635;DHT22;21757;43.610;1.440;2023-08-06T14:10:22;24.20;99.90
35635;DHT22;21757;43.610;1.440;2023-08-06T14:12:47;24.30;99.90
35635;DHT22;21757;43.610;1.440;2023-08-06T14:15:13;23.90;99.90
35635;DHT22;21757;43.610;1.440;2023-08-06T14:17:39;23.90;99.90
35635;DHT22;21757;43.610;1.440;2023-08-06T14:20:06;24.20;99.90
35635;DHT22;21757;43.610;1.440;2023-08-06T14:22:33;24.50;99.90
35635;DHT22;21757;43.610;1.440;2023-08-06T14:24:59;24.70;99.90
35635;DHT22;21757;43.610;1.440;2023-08-06T14:27:25;24.40;99.90
35635;DHT22;21757;43.610;1.440;2023-08-06T14:29:51;24.10;99.90
35635;DHT22;21757;43.610;1.440;2023-08-06T14:32:16;23.70;99.90
35635;DHT22;21757;43.610;1.440;2023-08-06T14:34:43;23.60;99.90
35635;DHT22;21757;43.610;1.440;2023-08-06T14:37:10;23.80;99.90
35635;DHT22;21757;43.610;1.440;2023-08-06T14:39:36;24.20;99.90
35635;DHT22;21757;43.610;1.440;2023-08-06T14:42:03;24.50;99.90
35635;DHT22;21757;43.610;1.440;2023-08-06T14:44:28;24.40;99.90
35635;DHT22;21757;43.610;1.440;2023-08-06T14:46:54;24.30;99.90
35635;DHT22;21757;43.610;1.440;2023-08-06T14:49:19;23.60;99.90
35635;DHT22;21757;43.610;1.440;2023-08-06T14:51:45;23.30;99.90
35635;DHT22;21757;43.610;1.440;2023-08-06T14:54:11;23.50;99.90
35635;DHT22;21757;43.610;1.440;2023-08-06T14:56:37;23.70;99.90
35635;DHT22;21757;43.610;1.440;2023-08-06T14:59:03;24.20;99.90
35635;DHT22;21757;43.610;1.440;2023-08-06T15:01:28;24.40;99.90
35635;DHT22;21757;43.610;1.440;2023-08-06T15:03:54;24.30;99.90
35635;DHT22;21757;43.610;1.440;2023-08-06T15:06:20;24.50;99.90
35635;DHT22;21757;43.610;1.440;2023-08-06T15:08:45;24.10;99.90
35635;DHT22;21757;43.610;1.440;2023-08-06T15:11:13;24.30;99.90
35635;DHT22;21757;43.610;1.440;2023-08-06T15:13:39;24.20;99.90
35635;DHT22;21757;43.610;1.440;2023-08-06T15:16:05;23.90;99.90
35635;DHT22;21757;43.610;1.440;2023-08-06T15:18:30;23.70;99.90
35635;DHT22;21757;43.610;1.440;2023-08-06T15:20:56;23.80;99.90
35635;DHT22;21757;43.610;1.440;2023-08-06T15:23:23;24.00;99.90
35635;DHT22;21757;43.610;1.440;2023-08-06T15:25:49;24.10;99.90
35635;DHT22;21757;43.610;1.440;2023-08-06T15:28:15;24.00;99.90
35635;DHT22;21757;43.610;1.440;2023-08-06T15:30:40;23.80;99.90
35635;DHT22;21757;43.610;1.440;2023-08-06T15:33:10;24.10;99.90
35635;DHT22;21757;43.610;1.440;2023-08-06T15:35:36;24.70;99.90